Time;durP1;ratioP1;P1;durP2;ratioP2;P2;SDS_P1;SDS_P2;PMS_P1;PMS_P2;Temp;Humidity;BMP_temperature;BMP_pressure;BME280_temperature;BME280_humidity;BME280_pressure;Samples;Min_cycle;Max_cycle;Signal;HPM_P1;HPM_P2
2023/09/06 00:24:47;;;;;;;6.80;6.10;;;18.50;99.90;;;;;;4992704;28;89821;-32
2023/09/06 00:27:14;;;;;;;9.02;6.32;;;18.50;99.90;;;;;;4985850;28;89942;-36
2023/09/06 00:29:41;;;;;;;6.32;5.72;;;18.50;99.90;;;;;;4998853;28;90047;-33
2023/09/06 00:32:06;;;;;;;5.53;5.03;;;18.50;99.90;;;;;;4998500;28;89984;-34
2023/09/06 00:34:33;;;;;;;6.38;5.72;;;18.50;99.90;;;;;;5000005;28;87746;-33
2023/09/06 00:37:01;;;;;;;6.28;5.63;;;18.60;99.90;;;;;;4999350;28;90531;-34
2023/09/06 00:39:30;;;;;;;7.63;5.53;;;18.50;99.90;;;;;;4997409;28;90980;-34
2023/09/06 00:41:55;;;;;;;6.22;5.63;;;18.50;99.90;;;;;;4998466;28;90258;-34
2023/09/06 00:44:21;;;;;;;7.57;6.88;;;18.40;99.90;;;;;;4997883;28;88146;-37
2023/09/06 00:46:47;;;;;;;9.07;7.07;;;18.40;99.90;;;;;;4981066;28;90462;-36
2023/09/06 00:49:13;;;;;;;6.53;5.93;;;18.40;99.90;;;;;;4998229;28;90113;-37
2023/09/06 00:51:39;;;;;;;6.90;6.07;;;18.40;99.90;;;;;;4999220;28;90554;-34
2023/09/06 00:54:05;;;;;;;7.47;6.70;;;18.40;99.90;;;;;;4998392;28;89076;-33
2023/09/06 00:56:31;;;;;;;6.63;5.95;;;18.50;99.90;;;;;;4998858;28;90015;-35
2023/09/06 00:58:56;;;;;;;8.27;7.03;;;18.40;99.90;;;;;;4998281;28;89390;-36
2023/09/06 01:01:22;;;;;;;10.13;6.75;;;18.40;99.90;;;;;;4993081;28;89262;-37
2023/09/06 01:03:49;;;;;;;7.10;6.13;;;18.50;99.90;;;;;;4994693;28;90051;-33
2023/09/06 01:06:25;;;;;;;6.32;5.80;;;18.50;99.90;;;;;;4987314;28;90329;-33
2023/09/06 01:08:57;;;;;;;8.10;5.72;;;18.40;99.90;;;;;;4998679;28;90170;-36
2023/09/06 01:11:26;;;;;;;8.05;7.25;;;18.40;99.90;;;;;;4998636;28;89809;-32
2023/09/06 01:13:52;;;;;;;;;;;18.30;99.90;;;;;;4999546;28;90309;-32
2023/09/06 01:16:44;;;;;;;6.95;6.35;;;17.80;99.90;;;;;;4999949;28;90040;-36
2023/09/06 01:19:12;;;;;;;6.13;5.63;;;17.60;99.90;;;;;;4988452;28;89310;-33
2023/09/06 01:21:47;;;;;;;7.07;6.20;;;17.50;99.90;;;;;;4998734;28;89648;-41
2023/09/06 01:24:15;;;;;;;7.00;6.40;;;17.50;99.90;;;;;;4998529;28;89409;-33
2023/09/06 01:26:41;;;;;;;7.30;6.57;;;17.40;99.90;;;;;;4997989;28;90123;-35
2023/09/06 01:29:07;;;;;;;6.13;5.57;;;17.40;99.90;;;;;;4997995;28;90660;-37
2023/09/06 01:31:33;;;;;;;6.85;6.15;;;17.50;99.90;;;;;;4997841;28;91980;-35
2023/09/06 01:33:58;;;;;;;6.15;5.65;;;17.50;99.90;;;;;;4997980;28;88414;-33
2023/09/06 01:36:24;;;;;;;7.10;6.40;;;17.50;99.90;;;;;;4998003;28;90257;-35
2023/09/06 01:38:51;;;;;;;8.27;7.47;;;17.50;99.90;;;;;;4998071;28;89715;-37
2023/09/06 01:41:17;;;;;;;12.15;8.55;;;17.50;99.90;;;;;;4998211;28;89148;-32
2023/09/06 01:43:43;;;;;;;9.45;7.22;;;17.60;99.90;;;;;;4998008;28;89767;-32
2023/09/06 01:46:08;;;;;;;8.40;7.45;;;17.60;99.90;;;;;;4997380;28;90640;-32
2023/09/06 01:48:36;;;;;;;8.65;7.88;;;17.60;99.90;;;;;;4999092;28;90695;-34
2023/09/06 01:51:03;;;;;;;8.47;7.60;;;17.60;99.90;;;;;;4997364;28;89730;-36
2023/09/06 01:53:29;;;;;;;10.70;9.60;;;17.50;99.90;;;;;;4996782;28;90427;-34
2023/09/06 01:55:55;;;;;;;8.43;7.53;;;17.60;99.90;;;;;;4997989;28;89770;-38
2023/09/06 01:58:20;;;;;;;10.00;8.90;;;17.60;99.90;;;;;;4997951;28;89802;-34
2023/09/06 02:00:46;;;;;;;9.32;7.72;;;17.60;99.90;;;;;;4997883;28;89660;-38
2023/09/06 02:03:16;;;;;;;8.05;7.45;;;17.60;99.90;;;;;;5001787;28;89979;-36
2023/09/06 02:05:42;;;;;;;8.20;7.55;;;17.60;99.90;;;;;;4988532;28;90042;-33
2023/09/06 02:08:08;;;;;;;7.93;7.22;;;17.60;99.90;;;;;;5000405;28;89844;-33
2023/09/06 02:10:34;;;;;;;8.68;7.88;;;17.70;99.90;;;;;;4983532;28;90487;-34
2023/09/06 02:12:59;;;;;;;10.30;7.57;;;17.70;99.90;;;;;;5002140;28;90088;-32
2023/09/06 02:15:26;;;;;;;8.25;7.03;;;17.60;99.90;;;;;;5000172;28;89782;-38
2023/09/06 02:17:52;;;;;;;9.98;7.22;;;17.70;99.90;;;;;;5000659;28;90542;-35
2023/09/06 02:20:19;;;;;;;7.13;6.53;;;17.60;99.90;;;;;;5000290;28;90038;-37
2023/09/06 02:22:56;;;;;;;10.68;6.88;;;17.70;99.90;;;;;;5001698;28;88602;-33
2023/09/06 02:25:25;;;;;;;7.13;6.53;;;17.70;99.90;;;;;;5001141;28;90353;-35
2023/09/06 02:27:51;;;;;;;7.90;7.30;;;17.70;99.90;;;;;;5001138;28;89762;-37
2023/09/06 02:30:17;;;;;;;7.65;6.88;;;17.70;99.90;;;;;;5000252;28;90710;-36
2023/09/06 02:32:43;;;;;;;7.60;6.90;;;17.70;99.90;;;;;;5000492;28;89233;-35
2023/09/06 02:35:08;;;;;;;7.90;7.10;;;17.70;99.90;;;;;;5001824;28;90221;-34
2023/09/06 02:37:35;;;;;;;7.15;6.55;;;17.70;99.90;;;;;;5000292;28;90328;-35
2023/09/06 02:40:02;;;;;;;7.22;6.50;;;17.20;99.90;;;;;;5001523;28;89429;-35
2023/09/06 02:42:29;;;;;;;6.72;6.13;;;17.00;99.90;;;;;;4987585;28;89808;-33
2023/09/06 02:44:54;;;;;;;5.85;5.45;;;17.00;99.90;;;;;;5000774;28;90649;-35
2023/09/06 02:47:28;;;;;;;7.90;7.18;;;17.00;99.90;;;;;;5000102;28;89799;-34
2023/09/06 02:49:55;;;;;;;10.18;8.95;;;17.00;99.90;;;;;;5001093;28;89997;-33
2023/09/06 02:52:30;;;;;;;9.87;9.00;;;17.00;99.90;;;;;;5000498;28;89416;-39
2023/09/06 02:55:02;;;;;;;8.20;7.40;;;17.00;99.90;;;;;;4990044;28;90743;-33
2023/09/06 02:57:30;;;;;;;9.02;8.23;;;16.90;99.90;;;;;;5000183;28;89682;-32
2023/09/06 02:59:55;;;;;;;10.02;9.10;;;16.90;99.90;;;;;;5001863;28;88135;-34
2023/09/06 03:02:24;;;;;;;10.68;9.32;;;16.80;99.90;;;;;;4992338;28;89255;-34
2023/09/06 03:05:03;;;;;;;8.75;7.95;;;16.90;99.90;;;;;;4989718;28;90044;-34
2023/09/06 03:07:31;;;;;;;8.60;7.43;;;16.80;99.90;;;;;;4998854;28;90751;-34
2023/09/06 03:09:57;;;;;;;9.48;8.57;;;16.80;99.90;;;;;;5000730;28;90209;-39
2023/09/06 03:12:23;;;;;;;8.60;7.80;;;16.80;99.90;;;;;;5000345;28;87824;-33
2023/09/06 03:14:50;;;;;;;6.80;6.30;;;16.70;99.90;;;;;;5000409;28;90201;-34
2023/09/06 03:17:18;;;;;;;9.45;8.52;;;16.60;99.90;;;;;;4986758;28;89485;-32
2023/09/06 03:19:46;;;;;;;10.45;9.50;;;16.60;99.90;;;;;;5000105;28;89933;-33
2023/09/06 03:22:12;;;;;;;;;;;16.60;99.90;;;;;;5001415;28;88462;-32
2023/09/06 03:24:43;;;;;;;7.22;6.63;;;16.60;99.90;;;;;;5001330;28;89799;-36
2023/09/06 03:27:15;;;;;;;8.77;8.07;;;16.50;99.90;;;;;;5000030;28;89770;-32
2023/09/06 03:29:43;;;;;;;8.90;8.20;;;16.50;99.90;;;;;;4999750;28;89808;-33
2023/09/06 03:32:09;;;;;;;8.63;7.97;;;16.50;99.90;;;;;;4998809;28;89089;-33
2023/09/06 03:34:41;;;;;;;10.70;9.00;;;16.40;99.90;;;;;;4999619;28;90185;-39
2023/09/06 03:37:11;;;;;;;10.15;9.35;;;16.40;99.90;;;;;;5000112;28;89100;-38
2023/09/06 03:39:43;;;;;;;9.65;7.97;;;16.40;99.90;;;;;;4999692;28;89198;-35
2023/09/06 03:42:10;;;;;;;9.05;8.13;;;16.40;99.90;;;;;;5000228;28;90312;-32
2023/09/06 03:44:36;;;;;;;9.00;8.13;;;16.40;99.90;;;;;;4981052;28;89203;-34
2023/09/06 03:47:05;;;;;;;10.48;9.45;;;16.30;99.90;;;;;;5000401;28;89896;-35
2023/09/06 03:49:35;;;;;;;10.60;9.63;;;16.30;99.90;;;;;;4980811;28;89717;-38
2023/09/06 03:52:05;;;;;;;11.88;10.73;;;16.30;99.90;;;;;;4994204;28;88596;-39
2023/09/06 03:54:34;;;;;;;11.63;10.02;;;16.30;99.90;;;;;;4998557;28;89969;-39
2023/09/06 03:57:01;;;;;;;9.43;8.52;;;16.30;99.90;;;;;;4998547;28;91135;-32
2023/09/06 03:59:27;;;;;;;10.57;9.23;;;16.20;99.90;;;;;;4981404;28;90527;-33
2023/09/06 04:01:55;;;;;;;9.90;9.05;;;16.20;99.90;;;;;;4990023;28;89001;-36
2023/09/06 04:04:21;;;;;;;8.57;7.72;;;16.20;99.90;;;;;;4985881;28;90308;-35
2023/09/06 04:06:47;;;;;;;8.88;8.07;;;16.10;99.90;;;;;;5000375;28;89479;-35
2023/09/06 04:09:13;;;;;;;8.43;7.75;;;16.10;99.90;;;;;;4998337;28;89629;-34
2023/09/06 04:11:40;;;;;;;9.32;8.35;;;16.10;99.90;;;;;;5000171;28;87624;-36
2023/09/06 04:14:07;;;;;;;9.70;8.80;;;16.10;99.90;;;;;;4999747;28;90050;-33
2023/09/06 04:16:35;;;;;;;9.53;8.63;;;16.10;99.90;;;;;;4999920;28;89322;-35
2023/09/06 04:19:01;;;;;;;8.67;7.67;;;16.00;99.90;;;;;;4999146;28;89813;-33
2023/09/06 04:21:26;;;;;;;10.73;8.43;;;16.00;99.90;;;;;;4998995;28;89363;-36
2023/09/06 04:23:52;;;;;;;9.30;8.50;;;16.00;99.90;;;;;;4998772;28;90387;-34
2023/09/06 04:26:19;;;;;;;9.88;8.93;;;16.00;99.90;;;;;;4998955;28;89769;-36
2023/09/06 04:28:45;;;;;;;10.43;9.43;;;16.00;99.90;;;;;;5000005;28;90425;-33
2023/09/06 04:31:11;;;;;;;10.75;9.70;;;16.00;99.90;;;;;;4998316;28;89568;-33
2023/09/06 04:33:37;;;;;;;10.10;9.07;;;16.00;99.90;;;;;;4999392;28;91171;-33
2023/09/06 04:36:04;;;;;;;11.75;10.10;;;16.10;99.90;;;;;;4999157;28;88813;-38
2023/09/06 04:38:31;;;;;;;9.90;9.02;;;16.10;99.90;;;;;;4998197;28;90746;-32
2023/09/06 04:40:58;;;;;;;10.75;9.40;;;16.10;99.90;;;;;;4993374;28;89359;-34
2023/09/06 04:43:25;;;;;;;9.67;8.77;;;16.10;99.90;;;;;;4998903;28;89918;-32
2023/09/06 04:45:51;;;;;;;11.32;10.27;;;16.20;99.90;;;;;;4997270;28;90134;-35
2023/09/06 04:48:16;;;;;;;9.43;8.52;;;16.10;99.90;;;;;;4998475;28;90527;-40
2023/09/06 04:50:43;;;;;;;16.60;8.85;;;16.20;99.90;;;;;;4999038;28;88800;-36
2023/09/06 04:53:09;;;;;;;9.90;8.52;;;16.20;99.90;;;;;;4998574;28;90410;-32
2023/09/06 04:55:36;;;;;;;11.02;10.02;;;16.10;99.90;;;;;;4998746;28;89813;-39
2023/09/06 04:58:02;;;;;;;9.55;8.65;;;16.10;99.90;;;;;;4997965;28;89843;-33
2023/09/06 05:00:35;;;;;;;9.65;8.65;;;16.10;99.90;;;;;;4997947;28;88376;-37
2023/09/06 05:03:01;;;;;;;11.90;9.07;;;16.10;99.90;;;;;;4988563;28;90097;-33
2023/09/06 05:05:27;;;;;;;16.58;9.35;;;16.10;99.90;;;;;;4995697;28;89670;-38
2023/09/06 05:07:53;;;;;;;11.35;9.77;;;16.00;99.90;;;;;;4998150;28;89216;-37
2023/09/06 05:10:18;;;;;;;9.88;8.90;;;16.10;99.90;;;;;;4998009;28;88432;-37
2023/09/06 05:12:45;;;;;;;10.10;8.95;;;16.10;99.90;;;;;;4998550;28;90033;-35
2023/09/06 05:15:12;;;;;;;10.73;9.63;;;16.10;99.90;;;;;;4998405;28;91027;-35
2023/09/06 05:17:39;;;;;;;13.10;8.55;;;16.10;99.90;;;;;;4987942;28;88950;-36
2023/09/06 05:20:32;;;;;;;9.52;8.63;;;16.10;99.90;;;;;;4997733;28;88641;-35
2023/09/06 05:23:01;;;;;;;9.65;8.75;;;16.10;99.90;;;;;;4998105;28;89964;-36
2023/09/06 05:25:26;;;;;;;;;;;16.10;99.90;;;;;;4998098;28;89960;-38
2023/09/06 05:27:56;;;;;;;11.00;10.00;;;16.20;99.90;;;;;;4999862;28;89442;-38
2023/09/06 05:30:22;;;;;;;10.65;9.65;;;16.10;99.90;;;;;;4979942;28;89844;-36
2023/09/06 05:32:48;;;;;;;9.90;8.98;;;16.20;99.90;;;;;;4998017;28;89816;-32
2023/09/06 05:35:13;;;;;;;11.23;9.52;;;16.20;99.90;;;;;;4997427;28;90343;-33
2023/09/06 05:37:40;;;;;;;9.60;8.70;;;16.20;99.90;;;;;;5000602;28;89276;-33
2023/09/06 05:40:07;;;;;;;10.98;10.07;;;16.20;99.90;;;;;;5001860;28;89519;-39
2023/09/06 05:42:33;;;;;;;10.57;9.77;;;16.20;99.90;;;;;;5000599;28;90764;-38
2023/09/06 05:44:59;;;;;;;10.35;9.27;;;16.20;99.90;;;;;;5001666;28;89616;-34
2023/09/06 05:47:24;;;;;;;11.38;10.38;;;16.20;99.90;;;;;;5000479;28;90042;-33
2023/09/06 05:49:55;;;;;;;21.23;9.65;;;16.20;99.90;;;;;;5001091;28;89464;-39
2023/09/06 05:52:22;;;;;;;11.18;10.23;;;16.30;99.90;;;;;;5001479;28;89930;-35
2023/09/06 05:54:48;;;;;;;10.95;9.85;;;16.30;99.90;;;;;;5001220;28;89663;-34
2023/09/06 05:57:14;;;;;;;11.43;10.52;;;16.30;99.90;;;;;;5000284;28;89821;-35
2023/09/06 05:59:40;;;;;;;11.60;10.60;;;16.30;99.90;;;;;;5000122;28;90627;-35
2023/09/06 06:02:07;;;;;;;11.55;10.45;;;16.40;99.90;;;;;;5000886;28;90224;-35
2023/09/06 06:04:32;;;;;;;13.20;10.00;;;16.40;99.90;;;;;;4992125;28;89817;-36
2023/09/06 06:06:58;;;;;;;11.07;9.93;;;16.40;99.90;;;;;;4997458;28;89421;-34
2023/09/06 06:09:25;;;;;;;12.98;11.68;;;16.50;99.90;;;;;;5000931;28;88462;-32
2023/09/06 06:11:54;;;;;;;11.27;10.17;;;16.50;99.90;;;;;;4999729;28;89013;-34
2023/09/06 06:14:20;;;;;;;12.88;11.77;;;16.50;99.90;;;;;;4999691;28;89739;-34
2023/09/06 06:16:46;;;;;;;10.75;9.68;;;16.50;99.90;;;;;;5000719;28;88935;-38
2023/09/06 06:19:12;;;;;;;11.05;9.93;;;16.60;99.90;;;;;;5000607;28;89780;-35
2023/09/06 06:21:39;;;;;;;11.35;10.07;;;16.60;99.90;;;;;;4989213;28;90244;-37
2023/09/06 06:24:08;;;;;;;9.93;9.02;;;16.60;99.90;;;;;;4998433;28;90532;-33
2023/09/06 06:26:34;;;;;;;11.48;10.48;;;16.70;99.90;;;;;;4998019;28;90310;-36
2023/09/06 06:29:01;;;;;;;10.65;9.65;;;16.70;99.90;;;;;;4997469;28;89801;-37
2023/09/06 06:31:27;;;;;;;10.47;9.63;;;16.80;99.90;;;;;;4998207;28;88933;-35
2023/09/06 06:33:53;;;;;;;12.18;10.15;;;16.80;99.90;;;;;;4999428;28;89589;-36
2023/09/06 06:36:19;;;;;;;11.45;10.32;;;16.90;99.90;;;;;;4997178;28;88214;-32
2023/09/06 06:38:46;;;;;;;11.75;10.55;;;16.90;99.90;;;;;;4998433;28;88234;-34
2023/09/06 06:41:22;;;;;;;10.68;9.68;;;17.00;99.90;;;;;;4997582;28;89884;-36
2023/09/06 06:43:49;;;;;;;10.07;9.07;;;17.10;99.90;;;;;;4990688;28;89219;-32
2023/09/06 06:46:29;;;;;;;10.52;9.55;;;17.20;99.90;;;;;;4998148;28;89726;-35
2023/09/06 06:48:55;;;;;;;11.23;9.25;;;17.40;99.90;;;;;;4998038;28;89539;-35
2023/09/06 06:51:21;;;;;;;9.05;8.30;;;17.60;99.90;;;;;;4997604;28;89781;-33
2023/09/06 06:53:47;;;;;;;10.75;9.02;;;17.70;99.90;;;;;;4991076;28;89748;-37
2023/09/06 06:56:12;;;;;;;9.50;8.52;;;17.90;99.90;;;;;;4998250;28;89072;-35
2023/09/06 06:58:38;;;;;;;8.90;8.18;;;18.10;99.90;;;;;;4997772;28;88377;-35
2023/09/06 07:01:04;;;;;;;9.48;8.75;;;18.30;99.90;;;;;;4994646;28;90790;-34
2023/09/06 07:03:29;;;;;;;9.60;8.68;;;18.50;99.90;;;;;;4988438;28;91529;-33
2023/09/06 07:05:55;;;;;;;9.50;8.48;;;18.70;99.90;;;;;;4984531;28;89360;-35
2023/09/06 07:08:23;;;;;;;9.88;8.55;;;18.80;99.90;;;;;;4998395;28;88744;-32
2023/09/06 07:10:49;;;;;;;9.55;8.60;;;19.10;99.90;;;;;;4998172;28;91222;-33
2023/09/06 07:13:15;;;;;;;10.05;9.07;;;19.20;99.90;;;;;;4996754;28;90996;-32
2023/09/06 07:15:40;;;;;;;8.90;8.00;;;19.40;99.90;;;;;;4998677;28;90527;-33
2023/09/06 07:18:08;;;;;;;10.77;9.52;;;19.70;99.90;;;;;;4997503;28;89843;-33
2023/09/06 07:20:35;;;;;;;8.60;7.80;;;19.90;99.90;;;;;;4999366;28;90151;-35
2023/09/06 07:23:00;;;;;;;9.18;8.07;;;20.10;99.90;;;;;;4999981;28;90170;-36
2023/09/06 07:25:27;;;;;;;8.60;7.88;;;20.20;99.90;;;;;;4999645;28;89320;-34
2023/09/06 07:27:53;;;;;;;9.48;8.23;;;20.50;99.90;;;;;;4999508;28;89905;-37
2023/09/06 07:30:19;;;;;;;8.60;7.72;;;20.60;99.90;;;;;;5000328;28;90708;-35
2023/09/06 07:32:45;;;;;;;8.50;7.40;;;20.80;99.90;;;;;;4998278;28;89899;-35
2023/09/06 07:35:12;;;;;;;8.35;7.07;;;21.00;99.90;;;;;;4999919;28;89448;-33
2023/09/06 07:37:37;;;;;;;8.48;7.07;;;21.10;99.90;;;;;;4999973;28;89350;-35
2023/09/06 07:40:03;;;;;;;8.15;7.43;;;21.40;99.90;;;;;;4996222;28;90189;-33
2023/09/06 07:42:29;;;;;;;7.50;6.80;;;21.40;99.90;;;;;;4999496;28;90050;-33
2023/09/06 07:44:56;;;;;;;7.65;6.90;;;21.60;99.90;;;;;;4999708;28;89621;-34
2023/09/06 07:47:22;;;;;;;7.23;6.63;;;21.90;99.90;;;;;;4999435;28;88297;-32
2023/09/06 07:49:48;;;;;;;8.52;6.70;;;22.10;99.90;;;;;;4999947;28;89684;-34
2023/09/06 07:52:14;;;;;;;7.13;6.43;;;22.20;99.90;;;;;;4998432;28;89436;-34
2023/09/06 07:54:40;;;;;;;8.18;6.88;;;22.40;99.90;;;;;;5000195;28;89530;-33
2023/09/06 07:57:06;;;;;;;7.78;6.57;;;22.70;99.90;;;;;;4999353;28;87650;-34
2023/09/06 07:59:32;;;;;;;6.72;5.93;;;22.70;99.90;;;;;;4998185;28;90206;-31
2023/09/06 08:01:57;;;;;;;7.03;6.10;;;22.90;99.90;;;;;;4999537;28;91394;-34
2023/09/06 08:04:23;;;;;;;5.68;5.18;;;23.20;99.90;;;;;;4991954;28;90293;-33
2023/09/06 08:06:49;;;;;;;6.72;6.13;;;23.20;99.90;;;;;;4996230;28;89056;-34
2023/09/06 08:09:14;;;;;;;6.20;5.70;;;23.30;99.90;;;;;;4998970;28;90776;-33
2023/09/06 08:11:40;;;;;;;6.45;5.78;;;23.40;99.90;;;;;;4981084;28;89546;-37
2023/09/06 08:14:06;;;;;;;6.95;6.10;;;23.60;99.90;;;;;;5000087;28;89619;-36
2023/09/06 08:16:32;;;;;;;6.43;5.82;;;23.80;99.90;;;;;;4998918;28;89335;-36
2023/09/06 08:18:57;;;;;;;5.53;5.03;;;23.80;99.90;;;;;;5000392;28;90305;-37
2023/09/06 08:21:23;;;;;;;7.82;4.32;;;24.10;99.90;;;;;;4998543;28;89465;-37
2023/09/06 08:23:48;;;;;;;4.45;4.05;;;24.20;99.90;;;;;;4998964;28;89105;-35
2023/09/06 08:26:14;;;;;;;4.82;4.43;;;24.40;99.90;;;;;;4998251;28;90333;-35
2023/09/06 08:28:40;;;;;;;5.25;4.10;;;24.50;99.90;;;;;;4999518;28;89819;-35
2023/09/06 08:31:06;;;;;;;5.25;4.70;;;24.70;99.90;;;;;;5052939;22;90514;-34
2023/09/06 08:33:32;;;;;;;5.50;4.05;;;24.90;99.90;;;;;;4998467;28;90223;-33
2023/09/06 08:35:58;;;;;;;4.65;4.00;;;25.10;99.90;;;;;;4999105;28;88565;-35
2023/09/06 08:38:24;;;;;;;3.70;3.30;;;25.20;99.90;;;;;;4999476;28;89901;-34
2023/09/06 08:40:50;;;;;;;4.18;3.25;;;25.40;99.90;;;;;;4998720;28;89596;-33
2023/09/06 08:43:18;;;;;;;5.32;3.13;;;25.50;99.90;;;;;;4999183;28;89282;-35
2023/09/06 08:45:46;;;;;;;7.78;4.05;;;25.70;99.90;;;;;;4998903;28;90079;-34
2023/09/06 08:48:12;;;;;;;4.20;3.53;;;25.70;99.90;;;;;;4998533;28;90041;-33
2023/09/06 08:50:38;;;;;;;10.07;3.72;;;25.80;99.90;;;;;;4998030;28;90432;-37
2023/09/06 08:53:05;;;;;;;3.85;3.20;;;25.90;99.90;;;;;;4999587;28;90364;-36
2023/09/06 08:55:31;;;;;;;4.47;3.08;;;26.00;99.90;;;;;;4998886;28;88235;-33
2023/09/06 08:57:58;;;;;;;3.80;3.35;;;26.20;99.90;;;;;;4998600;28;89890;-39
2023/09/06 09:00:23;;;;;;;3.03;2.72;;;26.20;99.90;;;;;;4998605;28;90498;-36
2023/09/06 09:02:50;;;;;;;3.35;2.90;;;26.30;99.90;;;;;;4998781;28;89803;-36
2023/09/06 09:05:16;;;;;;;4.00;3.20;;;26.40;99.90;;;;;;4984957;28;88770;-37
2023/09/06 09:07:41;;;;;;;4.70;3.72;;;26.50;99.90;;;;;;4998867;28;91652;-35
2023/09/06 09:10:10;;;;;;;3.80;3.35;;;26.60;99.90;;;;;;4997652;28;89657;-38
2023/09/06 09:12:38;;;;;;;3.10;2.90;;;26.70;99.90;;;;;;4990428;28;91309;-33
2023/09/06 09:15:05;;;;;;;3.83;3.30;;;26.70;99.90;;;;;;4996983;28;90305;-35
2023/09/06 09:17:32;;;;;;;3.60;3.23;;;26.80;99.90;;;;;;4998419;28;90129;-33
2023/09/06 09:19:59;;;;;;;3.70;3.33;;;26.90;99.90;;;;;;4998040;28;88578;-34
2023/09/06 09:22:27;;;;;;;3.53;3.23;;;26.80;96.00;;;;;;4998192;28;89131;-34
2023/09/06 09:25:04;;;;;;;3.47;3.17;;;26.90;98.50;;;;;;4998802;28;89445;-35
2023/09/06 09:27:32;;;;;;;3.95;3.45;;;27.00;95.70;;;;;;4998748;28;90329;-33
2023/09/06 09:30:04;;;;;;;3.65;3.20;;;27.10;97.30;;;;;;4998412;28;90251;-33
2023/09/06 09:32:31;;;;;;;3.63;3.33;;;27.20;95.40;;;;;;4995916;28;88855;-37
2023/09/06 09:34:57;;;;;;;3.30;3.05;;;27.20;94.90;;;;;;4996074;28;89793;-34
2023/09/06 09:37:23;;;;;;;8.52;3.10;;;27.30;94.40;;;;;;4995424;28;89845;-37
2023/09/06 09:39:49;;;;;;;3.55;3.25;;;27.20;95.20;;;;;;4995354;28;90389;-32
2023/09/06 09:42:15;;;;;;;3.75;3.22;;;27.30;96.70;;;;;;4995530;28;91321;-33
2023/09/06 09:44:41;;;;;;;3.72;2.88;;;27.50;96.70;;;;;;4996673;28;90074;-33
2023/09/06 09:47:12;;;;;;;3.42;3.08;;;27.60;96.20;;;;;;4994731;28;90613;-36
2023/09/06 09:49:40;;;;;;;5.18;3.63;;;27.60;92.30;;;;;;4984414;28;89566;-36
2023/09/06 09:52:09;;;;;;;3.50;3.20;;;27.50;91.40;;;;;;4995613;28;88868;-33
2023/09/06 09:54:39;;;;;;;4.88;3.28;;;27.60;91.70;;;;;;4996086;28;88673;-33
2023/09/06 09:57:05;;;;;;;4.65;3.22;;;27.80;90.20;;;;;;4996021;28;92060;-34
2023/09/06 09:59:33;;;;;;;3.47;3.17;;;27.90;90.20;;;;;;4995948;28;90035;-33
2023/09/06 10:02:00;;;;;;;4.47;4.07;;;28.10;92.00;;;;;;4987804;28;89588;-37
2023/09/06 10:04:29;;;;;;;5.10;3.42;;;28.20;91.40;;;;;;4988663;28;89895;-34
2023/09/06 10:06:55;;;;;;;3.10;2.78;;;28.20;90.40;;;;;;4990164;28;89066;-33
2023/09/06 10:09:22;;;;;;;3.72;3.42;;;28.30;90.80;;;;;;4994539;28;89063;-34
2023/09/06 10:11:51;;;;;;;3.83;3.45;;;28.30;88.60;;;;;;4995774;28;89208;-32
2023/09/06 10:14:19;;;;;;;8.60;3.72;;;28.30;85.50;;;;;;4996100;28;89372;-32
2023/09/06 10:16:48;;;;;;;5.07;3.30;;;28.20;82.00;;;;;;4995543;28;89942;-35
2023/09/06 10:19:14;;;;;;;3.80;3.03;;;28.30;88.50;;;;;;4994107;28;90486;-33
2023/09/06 10:21:41;;;;;;;2.85;2.65;;;28.40;85.80;;;;;;4994453;28;90207;-34
2023/09/06 10:24:18;;;;;;;3.80;3.40;;;28.40;85.00;;;;;;4997456;28;88740;-37
2023/09/06 10:26:47;;;;;;;3.38;3.08;;;28.50;83.90;;;;;;4998525;28;91062;-34
2023/09/06 10:29:22;;;;;;;6.03;3.17;;;28.40;85.20;;;;;;4997842;28;90465;-35
2023/09/06 10:31:53;;;;;;;3.42;3.13;;;28.40;78.60;;;;;;4981105;28;90410;-34
2023/09/06 10:34:20;;;;;;;3.78;3.20;;;28.50;81.70;;;;;;4978305;28;88838;-35
2023/09/06 10:36:52;;;;;;;4.18;3.78;;;28.40;79.60;;;;;;4977835;28;90206;-37
2023/09/06 10:39:21;;;;;;;3.35;3.05;;;28.40;80.90;;;;;;4973836;28;89211;-36
2023/09/06 10:42:11;;;;;;;4.18;3.78;;;28.40;80.70;;;;;;4978066;28;89567;-36
2023/09/06 10:44:55;;;;;;;3.20;2.90;;;28.20;79.00;;;;;;4977783;28;90387;-34
2023/09/06 10:47:24;;;;;;;3.13;2.83;;;28.40;79.90;;;;;;4973547;28;90718;-36
2023/09/06 10:50:14;;;;;;;3.60;2.97;;;28.50;82.80;;;;;;4976333;28;89799;-37
2023/09/06 10:53:02;;;;;;;2.95;2.67;;;28.60;85.50;;;;;;4976789;28;89696;-35
2023/09/06 10:55:42;;;;;;;3.55;3.25;;;28.60;82.40;;;;;;4977951;28;89261;-35
2023/09/06 10:58:09;;;;;;;4.35;3.47;;;28.60;85.80;;;;;;4969002;28;90367;-37
2023/09/06 11:00:35;;;;;;;3.20;2.90;;;28.60;82.70;;;;;;4976993;28;89747;-34
2023/09/06 11:03:06;;;;;;;3.30;2.80;;;28.60;80.60;;;;;;4964990;28;89525;-33
2023/09/06 11:05:42;;;;;;;3.28;2.97;;;28.60;78.60;;;;;;4965377;28;89767;-33
2023/09/06 11:08:09;;;;;;;3.17;2.55;;;28.60;80.00;;;;;;4966117;28;89322;-34
2023/09/06 11:10:36;;;;;;;3.30;2.90;;;28.60;80.80;;;;;;4975343;28;89861;-37
2023/09/06 11:13:12;;;;;;;3.13;2.80;;;28.60;82.60;;;;;;4978771;28;90150;-35
2023/09/06 11:15:39;;;;;;;3.13;2.92;;;28.70;87.80;;;;;;4977501;28;89709;-36
2023/09/06 11:18:05;;;;;;;4.53;2.90;;;28.70;82.80;;;;;;4977850;28;89944;-33
2023/09/06 11:20:33;;;;;;;2.97;2.78;;;28.70;82.20;;;;;;4976711;28;90620;-33
2023/09/06 11:23:00;;;;;;;3.28;3.08;;;28.80;82.10;;;;;;4977669;28;90094;-34
2023/09/06 11:25:27;;;;;;;3.05;2.78;;;28.70;80.30;;;;;;4977810;28;89178;-39
2023/09/06 11:27:58;;;;;;;6.55;2.78;;;28.70;81.30;;;;;;4977638;28;90343;-34
2023/09/06 11:30:26;;;;;;;3.03;2.72;;;28.70;82.00;;;;;;4976795;28;89375;-37
2023/09/06 11:32:55;;;;;;;3.42;3.08;;;28.70;83.40;;;;;;4993779;28;90415;-37
2023/09/06 11:35:51;;;;;;;3.60;2.17;;;28.70;80.90;;;;;;4997837;28;87970;-35
2023/09/06 11:38:21;;;;;;;5.18;3.33;;;28.80;79.20;;;;;;4997248;28;90126;-34
2023/09/06 11:40:47;;;;;;;2.78;2.58;;;28.90;86.50;;;;;;4997164;28;89723;-37
2023/09/06 11:43:15;;;;;;;4.63;2.97;;;28.90;83.50;;;;;;4985588;28;89503;-37
2023/09/06 11:45:44;;;;;;;2.60;2.40;;;28.90;82.10;;;;;;4996166;28;89500;-34
2023/09/06 11:48:10;;;;;;;3.03;2.72;;;28.90;81.60;;;;;;4996401;28;91041;-35
2023/09/06 11:50:40;;;;;;;4.40;2.73;;;28.80;79.90;;;;;;4995896;28;89770;-36
2023/09/06 11:53:09;;;;;;;5.82;3.03;;;28.70;81.30;;;;;;4997834;28;89142;-37
2023/09/06 11:55:42;;;;;;;3.08;2.60;;;28.80;80.10;;;;;;4997634;28;90085;-35
2023/09/06 11:58:20;;;;;;;2.50;2.30;;;28.70;78.80;;;;;;4995833;28;89833;-34
2023/09/06 12:00:50;;;;;;;2.88;2.67;;;28.70;79.70;;;;;;4995499;28;89719;-38
2023/09/06 12:03:17;;;;;;;3.35;3.05;;;28.70;79.00;;;;;;4985265;28;89459;-35
2023/09/06 12:05:47;;;;;;;3.15;2.70;;;28.80;81.10;;;;;;4994075;28;88492;-36
2023/09/06 12:08:17;;;;;;;2.63;2.42;;;28.70;80.00;;;;;;4997771;28;89719;-34
2023/09/06 12:11:05;;;;;;;2.88;2.67;;;28.70;81.80;;;;;;4995935;28;90616;-35
2023/09/06 12:13:32;;;;;;;3.20;2.75;;;28.80;79.10;;;;;;4996817;28;88430;-36
2023/09/06 12:15:58;;;;;;;3.20;2.80;;;28.80;79.80;;;;;;4997888;28;88328;-35
2023/09/06 12:18:25;;;;;;;4.72;2.97;;;28.90;80.60;;;;;;4996360;28;90183;-36
2023/09/06 12:20:51;;;;;;;6.10;3.17;;;28.90;78.20;;;;;;4996707;28;89961;-35
2023/09/06 12:23:20;;;;;;;3.97;2.45;;;28.80;79.00;;;;;;4996985;28;91513;-34
2023/09/06 12:25:47;;;;;;;3.10;2.80;;;28.90;80.10;;;;;;4997396;28;89119;-37
2023/09/06 12:28:12;;;;;;;2.67;2.47;;;28.90;79.90;;;;;;4995476;28;90484;-33
2023/09/06 12:30:38;;;;;;;3.20;2.97;;;28.90;82.20;;;;;;4996917;28;89764;-36
2023/09/06 12:33:04;;;;;;;5.10;3.42;;;28.90;79.30;;;;;;4996239;28;89557;-37
2023/09/06 12:35:35;;;;;;;3.53;2.92;;;29.00;78.40;;;;;;4995668;28;89875;-35
2023/09/06 12:38:01;;;;;;;3.63;3.03;;;29.00;80.50;;;;;;4996061;28;89732;-35
2023/09/06 12:40:27;;;;;;;4.05;2.38;;;29.00;78.20;;;;;;4996850;28;90336;-35
2023/09/06 12:42:53;;;;;;;2.72;2.47;;;29.00;78.10;;;;;;4995197;28;88684;-36
2023/09/06 12:45:30;;;;;;;3.20;2.42;;;29.10;79.50;;;;;;4996699;28;88954;-37
2023/09/06 12:48:00;;;;;;;;;;;29.10;79.80;;;;;;4997302;28;90294;-38
2023/09/06 12:50:26;;;;;;;2.55;2.35;;;29.10;79.20;;;;;;4979013;28;89704;-36
2023/09/06 12:52:53;;;;;;;5.07;2.83;;;29.10;78.80;;;;;;4996697;28;91023;-35
2023/09/06 12:55:19;;;;;;;3.10;2.80;;;29.10;80.90;;;;;;4996571;28;87869;-38
2023/09/06 12:57:46;;;;;;;2.67;2.47;;;29.10;78.40;;;;;;4995472;28;90060;-39
2023/09/06 13:00:12;;;;;;;3.75;2.75;;;29.10;82.00;;;;;;4995514;28;92371;-37
2023/09/06 13:02:40;;;;;;;3.07;2.37;;;29.20;80.40;;;;;;4981194;28;90909;-37
2023/09/06 13:05:10;;;;;;;3.58;2.95;;;29.20;82.00;;;;;;4975311;28;90485;-38
2023/09/06 13:07:36;;;;;;;3.53;3.00;;;29.20;84.20;;;;;;4995263;28;89178;-38
2023/09/06 13:10:03;;;;;;;4.65;3.65;;;29.20;82.00;;;;;;4993569;28;89474;-34
2023/09/06 13:12:29;;;;;;;5.35;2.83;;;29.10;79.00;;;;;;4993573;28;90745;-38